Time;durP1;ratioP1;P1;durP2;ratioP2;P2;SDS_P1;SDS_P2;PMS_P1;PMS_P2;Temp;Humidity;BMP_temperature;BMP_pressure;BME280_temperature;BME280_humidity;BME280_pressure;Samples;Min_cycle;Max_cycle;Signal;HPM_P1;HPM_P2
2021/09/08 00:01:05;;;;;;;0.03;0.03;;;19.10;65.80;;;;;;5005593;28;20239;-73
2021/09/08 00:03:32;;;;;;;0.83;0.83;;;19.10;66.00;;;;;;5013710;28;20219;-73
2021/09/08 00:06:00;;;;;;;0.00;0.00;;;19.10;65.80;;;;;;5003326;28;20212;-73
2021/09/08 00:08:27;;;;;;;0.73;0.37;;;19.10;65.70;;;;;;5003424;28;20221;-72
2021/09/08 00:10:54;;;;;;;0.10;0.10;;;19.10;66.60;;;;;;5004988;28;20231;-72
2021/09/08 00:13:21;;;;;;;0.10;0.10;;;19.10;65.80;;;;;;5005195;28;20700;-72
2021/09/08 00:15:48;;;;;;;1.23;1.13;;;19.10;65.70;;;;;;5004303;28;20247;-72
2021/09/08 00:18:15;;;;;;;0.10;0.10;;;19.10;65.70;;;;;;5006170;28;20220;-72
2021/09/08 00:20:43;;;;;;;0.73;0.73;;;19.10;65.70;;;;;;5002446;28;20246;-72
2021/09/08 00:23:10;;;;;;;0.10;0.10;;;19.20;65.80;;;;;;5005382;28;20219;-72
2021/09/08 00:25:38;;;;;;;0.10;0.10;;;19.10;65.70;;;;;;5005481;28;20219;-72
2021/09/08 00:28:05;;;;;;;0.00;0.00;;;19.10;65.70;;;;;;5003614;28;20760;-72
2021/09/08 00:30:32;;;;;;;0.20;0.20;;;19.10;65.70;;;;;;5006573;28;20655;-72
2021/09/08 00:32:59;;;;;;;0.10;0.10;;;19.10;65.60;;;;;;5006981;28;20219;-72
2021/09/08 00:35:26;;;;;;;0.10;0.10;;;19.10;65.50;;;;;;5004053;28;20299;-72
2021/09/08 00:37:53;;;;;;;0.10;0.10;;;19.10;65.50;;;;;;5003099;28;20223;-72
2021/09/08 00:40:23;;;;;;;2.90;1.40;;;19.00;65.50;;;;;;5001624;28;20228;-72
2021/09/08 00:42:51;;;;;;;0.20;0.20;;;18.90;65.60;;;;;;5005525;28;20212;-72
2021/09/08 00:45:18;;;;;;;0.10;0.10;;;18.90;65.70;;;;;;5004865;28;20256;-72
2021/09/08 00:47:46;;;;;;;0.10;0.10;;;18.80;65.70;;;;;;5002768;28;20224;-72
2021/09/08 00:50:13;;;;;;;0.77;0.77;;;18.80;65.60;;;;;;5006261;28;20273;-74
2021/09/08 00:52:41;;;;;;;0.10;0.10;;;18.70;65.50;;;;;;5007214;28;20239;-72
2021/09/08 00:55:10;;;;;;;0.10;0.10;;;18.70;65.70;;;;;;5005035;28;20223;-72
2021/09/08 00:57:37;;;;;;;0.10;0.10;;;18.60;65.80;;;;;;5005277;28;20223;-72
2021/09/08 01:00:06;;;;;;;0.00;0.00;;;18.60;65.80;;;;;;5003026;28;20668;-72
2021/09/08 01:02:34;;;;;;;0.10;0.10;;;18.50;66.00;;;;;;5005444;28;20211;-72
2021/09/08 01:05:01;;;;;;;0.17;0.17;;;18.50;66.10;;;;;;5000983;28;20228;-72
2021/09/08 01:07:29;;;;;;;0.00;0.00;;;18.50;66.10;;;;;;5001523;28;20308;-72
2021/09/08 01:09:55;;;;;;;0.00;0.00;;;18.50;66.20;;;;;;5002381;28;20216;-72
2021/09/08 01:12:23;;;;;;;0.10;0.10;;;18.50;66.20;;;;;;5004843;28;20216;-72
2021/09/08 01:14:50;;;;;;;0.10;0.10;;;18.40;66.00;;;;;;5003702;28;20228;-72
2021/09/08 01:17:20;;;;;;;0.40;0.40;;;18.50;66.10;;;;;;5002992;28;20219;-72
2021/09/08 01:19:47;;;;;;;0.33;0.33;;;18.40;66.10;;;;;;5004502;28;20215;-72
2021/09/08 01:22:14;;;;;;;0.10;0.10;;;18.40;66.20;;;;;;5001219;28;20221;-72
2021/09/08 01:24:43;;;;;;;0.10;0.10;;;18.30;66.20;;;;;;5003750;28;20281;-73
2021/09/08 01:27:10;;;;;;;0.00;0.00;;;18.30;66.50;;;;;;5004800;28;20223;-72
2021/09/08 01:29:38;;;;;;;0.10;0.10;;;18.20;66.90;;;;;;5002431;28;20236;-72
2021/09/08 01:32:05;;;;;;;0.20;0.20;;;18.10;67.10;;;;;;5006843;28;20288;-72
2021/09/08 01:34:32;;;;;;;0.10;0.10;;;18.00;67.70;;;;;;5011666;28;20232;-72
2021/09/08 01:36:59;;;;;;;0.10;0.10;;;17.90;67.80;;;;;;5001267;28;20208;-72
2021/09/08 01:39:26;;;;;;;0.07;0.07;;;17.80;67.90;;;;;;5006083;28;20212;-73
2021/09/08 01:41:53;;;;;;;0.10;0.10;;;17.80;67.90;;;;;;5005321;28;20649;-72
2021/09/08 01:44:23;;;;;;;0.67;0.67;;;17.90;68.00;;;;;;5002103;28;20252;-72
2021/09/08 01:46:52;;;;;;;0.07;0.07;;;17.90;68.10;;;;;;5004445;28;20212;-72
2021/09/08 01:49:20;;;;;;;0.00;0.00;;;17.90;68.30;;;;;;5001338;28;20636;-73
2021/09/08 01:51:48;;;;;;;0.00;0.00;;;17.90;68.50;;;;;;5004517;28;20207;-73
2021/09/08 01:54:15;;;;;;;0.10;0.10;;;17.90;68.30;;;;;;5006330;28;20237;-73
2021/09/08 01:56:42;;;;;;;0.10;0.10;;;17.90;68.20;;;;;;5003163;28;20238;-73
2021/09/08 01:59:09;;;;;;;0.10;0.10;;;17.90;68.00;;;;;;5004061;28;20282;-72
2021/09/08 02:01:36;;;;;;;1.27;1.27;;;17.90;68.00;;;;;;5000203;28;20248;-72
2021/09/08 02:04:05;;;;;;;0.10;0.10;;;17.90;67.80;;;;;;5004478;28;20219;-72
2021/09/08 02:06:33;;;;;;;0.10;0.10;;;17.90;67.70;;;;;;4998827;28;20214;-72
2021/09/08 02:09:01;;;;;;;0.10;0.10;;;17.90;67.80;;;;;;5002225;28;20271;-72
2021/09/08 02:11:28;;;;;;;0.30;0.30;;;17.80;67.90;;;;;;5003217;28;20223;-72
2021/09/08 02:13:56;;;;;;;0.10;0.10;;;17.80;67.90;;;;;;5001649;28;20220;-72
2021/09/08 02:16:23;;;;;;;0.00;0.00;;;17.80;68.10;;;;;;4998863;28;20227;-72
2021/09/08 02:18:51;;;;;;;0.00;0.00;;;17.80;68.20;;;;;;5008686;28;20306;-72
2021/09/08 02:21:19;;;;;;;0.10;0.10;;;17.80;68.30;;;;;;5007278;28;20242;-72
2021/09/08 02:23:47;;;;;;;0.10;0.10;;;17.80;68.40;;;;;;5000579;28;20216;-72
2021/09/08 02:26:14;;;;;;;0.10;0.10;;;17.70;68.50;;;;;;5004095;28;20220;-72
2021/09/08 02:28:42;;;;;;;0.10;0.10;;;17.70;68.60;;;;;;5002161;28;20216;-72
2021/09/08 02:31:09;;;;;;;13.33;1.07;;;17.60;68.80;;;;;;5003414;28;20277;-72
2021/09/08 02:33:38;;;;;;;0.10;0.10;;;17.60;68.90;;;;;;5002972;28;20307;-73
2021/09/08 02:36:06;;;;;;;0.10;0.10;;;17.60;68.90;;;;;;5001947;28;20275;-73
2021/09/08 02:38:34;;;;;;;1.60;0.47;;;17.50;68.80;;;;;;5003249;28;20228;-73
2021/09/08 02:41:06;;;;;;;1.60;1.20;;;17.50;68.90;;;;;;5000629;28;20248;-72
2021/09/08 02:43:35;;;;;;;0.10;0.10;;;17.50;68.70;;;;;;5001845;28;20240;-72
2021/09/08 02:46:03;;;;;;;0.40;0.40;;;17.50;68.60;;;;;;5002418;28;20640;-72
2021/09/08 02:48:31;;;;;;;0.00;0.00;;;17.50;68.60;;;;;;5003769;28;20281;-72
2021/09/08 02:50:58;;;;;;;0.10;0.10;;;17.60;68.60;;;;;;5003834;28;20286;-72
2021/09/08 02:53:26;;;;;;;0.10;0.10;;;17.50;68.60;;;;;;5002929;28;20678;-72
2021/09/08 02:55:53;;;;;;;0.13;0.13;;;17.50;69.00;;;;;;5008018;28;20208;-72
2021/09/08 02:58:20;;;;;;;0.83;0.83;;;17.50;69.10;;;;;;5003664;28;20623;-72
2021/09/08 03:00:48;;;;;;;0.13;0.13;;;17.50;69.10;;;;;;4999364;28;20474;-72
2021/09/08 03:03:15;;;;;;;0.40;0.27;;;17.50;70.00;;;;;;5004340;28;20247;-72
2021/09/08 03:05:42;;;;;;;0.10;0.10;;;17.40;70.10;;;;;;5000171;28;20216;-72
2021/09/08 03:08:09;;;;;;;0.10;0.10;;;17.40;70.10;;;;;;5000322;28;20216;-72
2021/09/08 03:10:36;;;;;;;0.60;0.60;;;17.40;70.20;;;;;;5002479;28;20224;-72
2021/09/08 03:13:05;;;;;;;0.27;0.27;;;17.40;70.20;;;;;;5001463;28;20224;-72
2021/09/08 03:15:33;;;;;;;0.10;0.10;;;17.30;70.10;;;;;;5002758;28;20313;-72
2021/09/08 03:18:00;;;;;;;0.10;0.10;;;17.40;70.00;;;;;;5002018;28;20632;-73
2021/09/08 03:20:27;;;;;;;0.30;0.30;;;17.30;69.70;;;;;;5000299;28;20398;-73
2021/09/08 03:22:54;;;;;;;0.20;0.20;;;17.30;69.60;;;;;;5000694;28;20513;-73
2021/09/08 03:25:21;;;;;;;0.10;0.10;;;17.30;69.60;;;;;;5003783;28;20592;-73
2021/09/08 03:27:48;;;;;;;0.20;0.20;;;17.20;69.50;;;;;;5002439;28;20614;-73
2021/09/08 03:30:15;;;;;;;0.43;0.43;;;17.20;69.40;;;;;;5000441;28;20557;-72
2021/09/08 03:32:42;;;;;;;0.10;0.10;;;17.10;69.60;;;;;;5003353;28;20557;-73
2021/09/08 03:35:09;;;;;;;0.10;0.10;;;17.10;69.70;;;;;;4995198;28;20217;-73
2021/09/08 03:37:36;;;;;;;0.10;0.10;;;17.10;69.60;;;;;;5003005;28;20514;-72
2021/09/08 03:40:05;;;;;;;0.10;0.10;;;17.10;69.30;;;;;;5001021;28;20226;-72
2021/09/08 03:42:35;;;;;;;0.10;0.10;;;17.10;69.20;;;;;;5001866;28;20253;-72
2021/09/08 03:45:04;;;;;;;0.00;0.00;;;17.10;69.20;;;;;;5008184;28;20240;-72
2021/09/08 03:47:31;;;;;;;0.10;0.10;;;17.10;69.20;;;;;;5000838;28;20310;-72
2021/09/08 03:49:58;;;;;;;0.10;0.10;;;17.10;69.30;;;;;;5001654;28;20223;-72
2021/09/08 03:52:26;;;;;;;0.10;0.10;;;17.10;69.40;;;;;;4999857;28;20225;-72
2021/09/08 03:54:53;;;;;;;0.10;0.10;;;17.10;69.70;;;;;;5002004;28;20223;-72
2021/09/08 03:57:20;;;;;;;0.10;0.10;;;17.10;70.60;;;;;;5004823;28;20220;-72
2021/09/08 03:59:47;;;;;;;0.90;0.90;;;17.00;70.80;;;;;;5005511;28;20227;-72
2021/09/08 04:02:14;;;;;;;0.10;0.10;;;16.90;70.90;;;;;;5007019;28;20231;-72
2021/09/08 04:04:41;;;;;;;0.20;0.20;;;16.90;70.90;;;;;;5003286;28;20251;-72
2021/09/08 04:07:08;;;;;;;0.10;0.10;;;16.90;71.00;;;;;;5002586;28;20227;-72
2021/09/08 04:09:35;;;;;;;0.10;0.10;;;16.80;71.00;;;;;;5004570;28;20216;-73
2021/09/08 04:12:02;;;;;;;0.10;0.10;;;16.90;71.00;;;;;;5004129;28;20220;-73
2021/09/08 04:14:31;;;;;;;7.23;2.27;;;16.90;71.00;;;;;;5005508;28;20216;-73
2021/09/08 04:16:58;;;;;;;0.20;0.20;;;16.90;71.10;;;;;;5002335;28;20216;-72
2021/09/08 04:19:25;;;;;;;0.10;0.10;;;16.90;71.10;;;;;;5002258;28;20227;-72
2021/09/08 04:21:52;;;;;;;0.10;0.10;;;16.90;71.10;;;;;;5004099;28;20254;-72
2021/09/08 04:24:19;;;;;;;0.10;0.10;;;16.90;71.00;;;;;;5006322;28;20222;-72
2021/09/08 04:26:46;;;;;;;0.20;0.20;;;17.00;71.10;;;;;;5005369;28;20629;-72
2021/09/08 04:29:14;;;;;;;0.10;0.10;;;17.00;71.10;;;;;;5005933;28;20274;-72
2021/09/08 04:31:41;;;;;;;0.10;0.10;;;17.00;71.20;;;;;;5004608;28;20646;-72
2021/09/08 04:34:09;;;;;;;0.57;0.57;;;17.00;71.40;;;;;;5006484;28;20226;-72
2021/09/08 04:36:36;;;;;;;0.30;0.20;;;17.00;71.50;;;;;;4998924;28;20665;-72
2021/09/08 04:39:03;;;;;;;0.00;0.00;;;17.00;71.50;;;;;;5003183;28;20216;-72
2021/09/08 04:41:30;;;;;;;0.60;0.60;;;17.00;71.60;;;;;;5004709;28;20239;-73
2021/09/08 04:43:57;;;;;;;0.10;0.10;;;17.00;71.60;;;;;;5004477;28;20240;-73
2021/09/08 04:46:24;;;;;;;0.10;0.10;;;16.90;71.60;;;;;;5003461;28;20213;-72
2021/09/08 04:48:52;;;;;;;0.10;0.10;;;16.90;71.60;;;;;;5006210;28;20219;-73
2021/09/08 04:51:19;;;;;;;0.10;0.10;;;16.90;71.50;;;;;;5002956;28;20224;-73
2021/09/08 04:53:46;;;;;;;0.10;0.10;;;16.90;71.10;;;;;;5003542;28;20251;-73
2021/09/08 04:56:13;;;;;;;0.20;0.20;;;16.90;71.10;;;;;;5003763;28;20212;-73
2021/09/08 04:58:41;;;;;;;0.10;0.10;;;17.00;71.00;;;;;;5002820;28;20271;-73
2021/09/08 05:01:08;;;;;;;0.07;0.07;;;17.00;70.90;;;;;;5002555;28;20338;-72
2021/09/08 05:03:35;;;;;;;0.10;0.10;;;17.10;70.70;;;;;;5007366;28;20243;-72
2021/09/08 05:06:02;;;;;;;0.20;0.20;;;17.20;70.60;;;;;;4997568;28;20208;-72
2021/09/08 05:08:29;;;;;;;0.10;0.10;;;17.30;70.40;;;;;;5011987;28;20663;-72
2021/09/08 05:10:56;;;;;;;0.10;0.10;;;17.40;70.20;;;;;;5002048;28;20596;-72
2021/09/08 05:13:23;;;;;;;0.00;0.00;;;17.40;70.00;;;;;;5004777;28;20216;-72
2021/09/08 05:15:50;;;;;;;0.00;0.00;;;17.50;69.90;;;;;;5002852;28;20220;-73
2021/09/08 05:18:18;;;;;;;0.10;0.10;;;17.60;69.80;;;;;;5003613;28;20224;-73
2021/09/08 05:20:45;;;;;;;0.10;0.10;;;17.60;69.50;;;;;;5004513;28;20212;-73
2021/09/08 05:23:12;;;;;;;0.00;0.00;;;17.80;69.30;;;;;;5002483;28;20215;-73
2021/09/08 05:25:39;;;;;;;0.40;0.40;;;17.90;68.90;;;;;;5008066;28;20215;-73
2021/09/08 05:28:08;;;;;;;0.10;0.10;;;18.10;68.40;;;;;;5004861;28;20640;-73
2021/09/08 05:30:34;;;;;;;0.10;0.10;;;18.30;67.80;;;;;;5001365;28;20216;-72
2021/09/08 05:33:01;;;;;;;0.20;0.20;;;18.40;67.30;;;;;;5005452;28;20219;-72
2021/09/08 05:35:29;;;;;;;0.10;0.10;;;18.40;67.10;;;;;;5001276;28;20224;-72
2021/09/08 05:37:55;;;;;;;0.30;0.30;;;18.40;67.00;;;;;;5002779;28;20258;-72
2021/09/08 05:40:23;;;;;;;0.13;0.13;;;18.50;67.00;;;;;;5002868;28;20216;-72
2021/09/08 05:42:50;;;;;;;0.13;0.13;;;18.50;66.90;;;;;;5000372;28;20583;-72
2021/09/08 05:45:17;;;;;;;0.20;0.20;;;18.70;66.70;;;;;;5004614;28;20327;-72
2021/09/08 05:47:44;;;;;;;0.10;0.10;;;18.80;66.30;;;;;;5006817;28;20222;-72
2021/09/08 05:50:11;;;;;;;0.10;0.10;;;19.00;66.10;;;;;;5003191;28;20258;-72
2021/09/08 05:52:39;;;;;;;0.50;0.50;;;19.10;65.80;;;;;;5004219;28;20227;-72
2021/09/08 05:55:06;;;;;;;0.10;0.10;;;19.30;65.40;;;;;;5002073;28;20255;-72
2021/09/08 05:57:43;;;;;;;0.13;0.13;;;19.40;65.10;;;;;;5004347;28;20254;-72
2021/09/08 06:00:11;;;;;;;0.30;0.30;;;19.60;64.90;;;;;;5003605;28;20601;-72
2021/09/08 06:02:38;;;;;;;0.10;0.10;;;19.80;64.60;;;;;;5001318;28;20745;-72
2021/09/08 06:05:06;;;;;;;0.10;0.10;;;19.90;64.20;;;;;;4999584;28;20629;-72
2021/09/08 06:07:34;;;;;;;0.30;0.30;;;20.10;63.80;;;;;;5001743;28;20250;-72
2021/09/08 06:10:01;;;;;;;0.10;0.10;;;20.40;63.40;;;;;;5004398;28;20211;-72
2021/09/08 06:12:28;;;;;;;0.30;0.30;;;20.60;62.80;;;;;;5000844;28;20220;-72
2021/09/08 06:14:55;;;;;;;0.10;0.10;;;20.80;62.20;;;;;;5003634;28;20683;-72
2021/09/08 06:17:23;;;;;;;0.10;0.10;;;21.00;61.90;;;;;;5001151;28;20216;-72
2021/09/08 06:19:50;;;;;;;0.00;0.00;;;21.20;61.30;;;;;;5003188;28;20290;-73
2021/09/08 06:22:17;;;;;;;0.00;0.00;;;21.40;60.90;;;;;;5004511;28;20240;-73
2021/09/08 06:24:44;;;;;;;0.10;0.10;;;21.60;60.60;;;;;;5002503;28;20632;-73
2021/09/08 06:27:11;;;;;;;0.10;0.10;;;21.70;60.10;;;;;;5002917;28;20212;-73
2021/09/08 06:29:38;;;;;;;2.00;1.10;;;21.80;59.90;;;;;;5002181;28;20216;-73
2021/09/08 06:32:06;;;;;;;0.10;0.10;;;21.90;59.50;;;;;;5001047;28;20227;-73
2021/09/08 06:34:33;;;;;;;0.40;0.40;;;22.00;59.20;;;;;;5007085;28;20304;-73
2021/09/08 06:37:00;;;;;;;0.10;0.10;;;22.10;59.00;;;;;;5016762;28;20240;-73
2021/09/08 06:39:27;;;;;;;0.10;0.10;;;22.20;58.60;;;;;;5002414;28;20222;-73
2021/09/08 06:41:55;;;;;;;0.33;0.33;;;22.20;58.40;;;;;;5002925;28;20245;-73
2021/09/08 06:44:23;;;;;;;0.10;0.10;;;22.30;58.30;;;;;;4999594;28;20248;-73
2021/09/08 06:46:50;;;;;;;0.10;0.10;;;22.30;58.20;;;;;;5003170;28;20216;-73
2021/09/08 06:49:19;;;;;;;0.20;0.20;;;22.40;57.80;;;;;;5002165;28;20255;-73
2021/09/08 06:51:46;;;;;;;0.10;0.10;;;22.50;57.80;;;;;;5001273;28;20278;-73
2021/09/08 06:54:13;;;;;;;0.40;0.40;;;22.50;57.70;;;;;;5004308;28;20298;-73
2021/09/08 06:56:40;;;;;;;0.57;0.57;;;22.50;57.50;;;;;;4999540;28;20219;-73
2021/09/08 06:59:08;;;;;;;0.67;0.67;;;22.60;57.40;;;;;;5001927;28;20508;-73
2021/09/08 07:01:36;;;;;;;0.10;0.10;;;22.70;57.20;;;;;;5001374;28;20616;-73
2021/09/08 07:04:03;;;;;;;0.13;0.13;;;22.80;56.90;;;;;;5004493;28;20208;-73
2021/09/08 07:06:31;;;;;;;0.27;0.27;;;22.90;56.60;;;;;;4992280;28;20216;-73
2021/09/08 07:08:58;;;;;;;0.37;0.37;;;23.00;56.90;;;;;;4992056;28;20216;-73
2021/09/08 07:11:25;;;;;;;0.10;0.10;;;23.00;56.50;;;;;;4991198;28;20680;-73
2021/09/08 07:13:52;;;;;;;0.23;0.23;;;22.90;56.00;;;;;;4992501;28;20219;-73
2021/09/08 07:16:19;;;;;;;0.10;0.10;;;22.90;55.90;;;;;;4992432;28;20217;-73
2021/09/08 07:18:47;;;;;;;0.20;0.20;;;22.80;56.20;;;;;;4999467;28;20222;-73
2021/09/08 07:21:14;;;;;;;0.10;0.10;;;22.80;56.10;;;;;;5001486;28;20220;-73
2021/09/08 07:23:41;;;;;;;0.30;0.30;;;22.80;56.00;;;;;;5001503;28;20220;-73
2021/09/08 07:26:09;;;;;;;0.50;0.50;;;22.90;56.10;;;;;;5005577;28;20220;-73
2021/09/08 07:28:36;;;;;;;0.30;0.30;;;22.90;56.10;;;;;;5016893;28;20629;-73
2021/09/08 07:31:03;;;;;;;0.20;0.20;;;23.00;56.10;;;;;;5006426;28;20678;-73
2021/09/08 07:33:30;;;;;;;0.00;0.00;;;23.10;56.00;;;;;;5005183;28;20297;-73
2021/09/08 07:35:57;;;;;;;0.10;0.10;;;23.30;56.00;;;;;;5004502;28;20208;-73
2021/09/08 07:38:26;;;;;;;0.20;0.20;;;23.40;55.60;;;;;;5006915;28;20226;-73
2021/09/08 07:40:55;;;;;;;0.53;0.53;;;23.50;55.60;;;;;;5004864;28;20604;-73
2021/09/08 07:43:23;;;;;;;0.37;0.37;;;23.70;55.30;;;;;;5008155;28;20247;-73
2021/09/08 07:45:50;;;;;;;0.10;0.10;;;23.90;54.80;;;;;;5004325;28;20212;-73
2021/09/08 07:48:20;;;;;;;0.77;0.77;;;24.10;54.30;;;;;;5007499;28;20234;-73
2021/09/08 07:50:48;;;;;;;0.10;0.10;;;24.30;54.10;;;;;;5007371;28;20204;-73
2021/09/08 07:53:15;;;;;;;0.67;0.67;;;24.60;53.90;;;;;;5005095;28;20218;-73
2021/09/08 07:55:42;;;;;;;0.93;0.93;;;24.90;53.40;;;;;;5006389;28;20306;-73
2021/09/08 07:58:09;;;;;;;0.00;0.00;;;25.00;52.90;;;;;;5004546;28;20220;-73
2021/09/08 08:00:36;;;;;;;0.10;0.10;;;25.20;52.10;;;;;;5005830;28;20242;-73
2021/09/08 08:03:04;;;;;;;0.10;0.10;;;25.30;51.90;;;;;;5006532;28;20239;-73
2021/09/08 08:05:33;;;;;;;0.67;0.67;;;25.30;52.10;;;;;;5002862;28;20227;-73
2021/09/08 08:08:01;;;;;;;0.30;0.30;;;25.40;52.30;;;;;;5007410;28;20207;-73
2021/09/08 08:10:29;;;;;;;0.10;0.10;;;25.50;51.90;;;;;;5003798;28;20224;-73
2021/09/08 08:12:56;;;;;;;0.10;0.10;;;25.60;52.20;;;;;;5007666;28;20228;-72
2021/09/08 08:15:24;;;;;;;0.10;0.10;;;25.70;52.20;;;;;;5003267;28;20242;-73
2021/09/08 08:17:52;;;;;;;2.47;1.07;;;25.80;51.40;;;;;;5006081;28;20211;-73
2021/09/08 08:20:20;;;;;;;0.10;0.10;;;26.00;51.60;;;;;;5003220;28;20220;-73
2021/09/08 08:22:49;;;;;;;0.10;0.10;;;26.20;51.40;;;;;;5006021;28;20393;-73
2021/09/08 08:25:19;;;;;;;0.10;0.10;;;26.30;50.10;;;;;;5009029;28;20204;-73
2021/09/08 08:27:47;;;;;;;0.00;0.00;;;26.50;50.50;;;;;;4994988;28;20220;-73
2021/09/08 08:30:15;;;;;;;0.20;0.20;;;26.70;50.10;;;;;;4994259;28;20307;-73
2021/09/08 08:32:43;;;;;;;0.10;0.10;;;26.80;49.80;;;;;;4994872;28;20509;-73
2021/09/08 08:35:11;;;;;;;0.10;0.10;;;27.00;49.70;;;;;;5001344;28;20315;-73
2021/09/08 08:37:39;;;;;;;0.00;0.00;;;27.20;49.00;;;;;;4994612;28;20644;-73
2021/09/08 08:40:07;;;;;;;1.43;1.37;;;27.20;49.00;;;;;;4994408;28;20212;-74
2021/09/08 08:42:36;;;;;;;0.20;0.20;;;27.40;49.00;;;;;;4993594;28;20314;-73
2021/09/08 08:45:07;;;;;;;0.10;0.10;;;27.60;48.80;;;;;;4994512;28;20240;-73
2021/09/08 08:47:35;;;;;;;0.00;0.00;;;27.90;48.40;;;;;;4993769;28;20220;-73
2021/09/08 08:50:08;;;;;;;2.30;0.90;;;28.10;48.10;;;;;;4998637;28;20282;-73
2021/09/08 08:52:36;;;;;;;0.10;0.10;;;28.30;47.90;;;;;;5006072;28;20219;-73
2021/09/08 08:55:04;;;;;;;0.10;0.10;;;28.40;47.30;;;;;;5002330;28;20442;-73
2021/09/08 08:57:31;;;;;;;0.70;0.70;;;28.50;47.40;;;;;;5004296;28;20255;-73
2021/09/08 08:59:58;;;;;;;0.10;0.10;;;28.60;47.40;;;;;;5005024;28;20218;-73
2021/09/08 09:02:27;;;;;;;0.00;0.00;;;28.80;47.20;;;;;;5006105;28;20434;-73
2021/09/08 09:04:57;;;;;;;0.50;0.50;;;28.90;46.30;;;;;;5001981;28;20298;-73
2021/09/08 09:07:33;;;;;;;0.10;0.10;;;28.80;45.50;;;;;;5001586;28;20219;-73
2021/09/08 09:10:09;;;;;;;0.10;0.10;;;28.80;45.80;;;;;;5005826;28;20223;-73
2021/09/08 09:12:42;;;;;;;0.10;0.10;;;29.00;45.90;;;;;;5004668;28;20224;-73
2021/09/08 09:15:17;;;;;;;4.93;0.63;;;29.10;45.90;;;;;;5001261;28;20663;-74
2021/09/08 09:17:46;;;;;;;0.10;0.10;;;29.00;44.50;;;;;;5003892;28;20270;-74
2021/09/08 09:20:14;;;;;;;1.07;0.87;;;28.90;45.10;;;;;;5002822;28;20247;-73
2021/09/08 09:22:41;;;;;;;1.07;0.97;;;29.00;44.70;;;;;;5005175;28;20239;-73
2021/09/08 09:25:14;;;;;;;0.13;0.13;;;29.00;45.00;;;;;;5005294;28;20639;-73
2021/09/08 09:27:46;;;;;;;0.10;0.10;;;29.10;44.80;;;;;;5004474;28;20624;-73
2021/09/08 09:30:17;;;;;;;0.00;0.00;;;29.20;45.10;;;;;;5002167;28;20220;-73
2021/09/08 09:32:47;;;;;;;0.20;0.20;;;29.40;44.80;;;;;;5003108;28;20212;-73
2021/09/08 09:35:18;;;;;;;0.30;0.30;;;29.60;45.20;;;;;;4998656;28;20216;-73
2021/09/08 09:37:56;;;;;;;0.03;0.03;;;29.70;43.50;;;;;;5001773;28;20556;-73
2021/09/08 09:40:29;;;;;;;0.00;0.00;;;29.50;43.00;;;;;;5002749;28;20625;-73
2021/09/08 09:43:03;;;;;;;0.10;0.10;;;29.50;43.60;;;;;;4994104;28;20248;-74
2021/09/08 09:45:36;;;;;;;0.00;0.00;;;29.60;43.70;;;;;;5005233;28;20211;-74
2021/09/08 09:48:05;;;;;;;0.20;0.20;;;29.80;43.60;;;;;;5005185;28;20223;-74
2021/09/08 09:50:33;;;;;;;0.20;0.20;;;30.00;43.20;;;;;;5001058;28;20377;-74
2021/09/08 09:53:03;;;;;;;0.27;0.27;;;30.20;43.00;;;;;;5001630;28;20220;-73
2021/09/08 09:55:30;;;;;;;0.00;0.00;;;30.30;40.90;;;;;;5001864;28;20228;-73
2021/09/08 09:57:58;;;;;;;0.77;0.77;;;30.20;40.30;;;;;;5000656;28;20825;-74
2021/09/08 10:00:25;;;;;;;0.00;0.00;;;30.20;40.50;;;;;;5003788;28;20216;-74
2021/09/08 10:02:53;;;;;;;0.10;0.10;;;30.10;40.90;;;;;;5007213;28;20247;-74
2021/09/08 10:05:20;;;;;;;0.00;0.00;;;30.30;41.40;;;;;;4998994;28;20648;-74
2021/09/08 10:07:48;;;;;;;0.20;0.20;;;30.50;40.30;;;;;;5004553;28;20648;-74
2021/09/08 10:10:24;;;;;;;0.00;0.00;;;30.50;40.00;;;;;;5000800;28;20211;-74
2021/09/08 10:13:01;;;;;;;0.00;0.00;;;30.60;40.20;;;;;;5004277;28;20215;-74
2021/09/08 10:15:31;;;;;;;0.00;0.00;;;30.60;39.20;;;;;;5002352;28;20219;-74
2021/09/08 10:18:11;;;;;;;0.83;0.83;;;30.60;38.50;;;;;;5001298;28;20262;-74
2021/09/08 10:20:43;;;;;;;0.07;0.07;;;30.50;38.00;;;;;;5002133;28;20644;-74
2021/09/08 10:23:15;;;;;;;0.20;0.20;;;30.30;37.10;;;;;;5004205;28;20498;-74
2021/09/08 10:25:49;;;;;;;0.17;0.17;;;30.20;38.20;;;;;;5000358;28;20212;-74
2021/09/08 10:28:19;;;;;;;0.10;0.10;;;30.20;38.20;;;;;;5003290;28;20291;-74
2021/09/08 10:30:47;;;;;;;12.63;1.60;;;30.50;38.30;;;;;;5000184;28;20212;-74
2021/09/08 10:33:15;;;;;;;0.83;0.57;;;30.60;37.70;;;;;;5005842;28;20591;-74
2021/09/08 10:35:43;;;;;;;0.50;0.50;;;30.70;38.10;;;;;;4998765;28;20227;-74
2021/09/08 10:38:14;;;;;;;0.20;0.20;;;30.80;37.50;;;;;;5001989;28;20222;-74
2021/09/08 10:40:43;;;;;;;0.90;0.90;;;30.90;37.00;;;;;;4999784;28;20645;-74
2021/09/08 10:43:10;;;;;;;5.87;1.87;;;30.80;36.80;;;;;;5003107;28;20243;-74
2021/09/08 10:45:52;;;;;;;1.80;1.47;;;30.80;36.50;;;;;;5000080;28;20566;-74
2021/09/08 10:48:42;;;;;;;0.80;0.80;;;30.80;36.40;;;;;;5001844;28;20247;-74
2021/09/08 10:51:20;;;;;;;0.50;0.50;;;30.60;36.40;;;;;;5016805;28;20625;-74
2021/09/08 10:54:02;;;;;;;5.70;1.60;;;30.60;36.50;;;;;;5001143;28;20263;-74
2021/09/08 10:56:48;;;;;;;0.77;0.77;;;30.70;36.90;;;;;;5000613;28;20248;-74
2021/09/08 10:59:16;;;;;;;1.03;0.97;;;30.70;36.10;;;;;;4998625;28;20213;-74
2021/09/08 11:01:43;;;;;;;2.73;0.90;;;30.70;36.40;;;;;;5003469;28;20216;-74
2021/09/08 11:04:14;;;;;;;0.80;0.80;;;30.90;35.90;;;;;;5009796;28;20239;-74
2021/09/08 11:06:44;;;;;;;0.77;0.77;;;31.00;36.10;;;;;;5005851;28;20250;-74
2021/09/08 11:09:13;;;;;;;28.67;1.70;;;31.10;35.50;;;;;;5005523;28;20224;-74
2021/09/08 11:11:52;;;;;;;1.87;1.73;;;31.20;35.70;;;;;;5004018;28;20671;-74
2021/09/08 11:14:21;;;;;;;1.87;1.17;;;31.10;34.70;;;;;;5005725;28;20216;-74
2021/09/08 11:16:49;;;;;;;0.77;0.77;;;31.00;34.00;;;;;;5007951;28;20220;-76
2021/09/08 11:19:17;;;;;;;0.83;0.70;;;30.90;34.70;;;;;;5007568;28;20215;-75
2021/09/08 11:21:44;;;;;;;0.60;0.60;;;30.80;35.40;;;;;;5004853;28;20310;-74
2021/09/08 11:24:13;;;;;;;0.10;0.10;;;30.80;35.80;;;;;;5005556;28;20326;-74
2021/09/08 11:26:41;;;;;;;0.53;0.53;;;30.90;36.00;;;;;;5010376;28;20375;-74
2021/09/08 11:29:14;;;;;;;1.50;0.57;;;31.10;35.90;;;;;;5004835;28;20228;-74
2021/09/08 11:31:47;;;;;;;0.27;0.27;;;31.30;35.40;;;;;;5007839;28;20215;-74
2021/09/08 11:34:25;;;;;;;1.23;1.00;;;31.30;34.50;;;;;;5007569;28;20219;-74
2021/09/08 11:36:59;;;;;;;0.20;0.20;;;31.30;34.70;;;;;;5003968;28;20223;-74
2021/09/08 11:39:27;;;;;;;0.73;0.73;;;31.40;34.80;;;;;;5005013;28;20224;-74
2021/09/08 11:41:59;;;;;;;0.50;0.50;;;31.50;34.60;;;;;;5008952;28;20585;-74
2021/09/08 11:44:26;;;;;;;0.30;0.30;;;31.60;33.70;;;;;;5003319;28;20633;-73
2021/09/08 11:46:56;;;;;;;0.20;0.20;;;31.50;33.10;;;;;;5005762;28;20675;-73
2021/09/08 11:49:24;;;;;;;0.50;0.50;;;31.40;33.50;;;;;;5005349;28;20235;-73
2021/09/08 11:51:53;;;;;;;3.00;1.57;;;31.40;33.10;;;;;;5004745;28;20223;-73
2021/09/08 11:54:22;;;;;;;0.30;0.30;;;31.10;33.50;;;;;;5014209;28;20303;-74
2021/09/08 11:56:55;;;;;;;1.53;0.33;;;31.10;34.00;;;;;;5003633;28;20227;-74
2021/09/08 11:59:34;;;;;;;1.83;0.67;;;31.10;33.60;;;;;;5005035;28;20224;-74
2021/09/08 12:02:03;;;;;;;0.10;0.10;;;31.10;33.70;;;;;;5005906;28;20654;-74
2021/09/08 12:04:31;;;;;;;2.03;1.83;;;31.00;33.50;;;;;;5011884;28;20310;-73
2021/09/08 12:07:01;;;;;;;0.40;0.40;;;31.00;34.00;;;;;;5003083;28;20235;-73
2021/09/08 12:09:30;;;;;;;0.10;0.10;;;30.90;34.20;;;;;;5006739;28;20555;-73
2021/09/08 12:11:59;;;;;;;0.00;0.00;;;30.80;34.20;;;;;;5002636;28;20290;-73
2021/09/08 12:14:34;;;;;;;1.70;0.63;;;30.70;33.90;;;;;;5005083;28;20231;-73
2021/09/08 12:17:20;;;;;;;0.63;0.40;;;30.70;34.50;;;;;;5002632;28;20216;-73
2021/09/08 12:20:03;;;;;;;0.20;0.20;;;30.80;34.60;;;;;;5006875;28;20223;-72
2021/09/08 12:22:36;;;;;;;0.33;0.33;;;31.00;33.80;;;;;;5006073;28;20220;-72
2021/09/08 12:25:12;;;;;;;0.33;0.33;;;31.00;33.90;;;;;;5007609;28;20208;-73
2021/09/08 12:28:06;;;;;;;0.00;0.00;;;30.90;34.10;;;;;;5002149;28;20218;-73
2021/09/08 12:30:33;;;;;;;0.10;0.10;;;30.90;34.00;;;;;;5006895;28;20218;-73
2021/09/08 12:33:05;;;;;;;0.10;0.10;;;30.80;34.00;;;;;;5003722;28;20286;-73
2021/09/08 12:35:38;;;;;;;0.00;0.00;;;30.70;34.50;;;;;;5004921;28;20878;-73
2021/09/08 12:38:41;;;;;;;0.10;0.10;;;30.70;33.40;;;;;;5003602;28;20212;-73
2021/09/08 12:41:21;;;;;;;0.00;0.00;;;30.60;33.80;;;;;;5004344;28;20216;-73
2021/09/08 12:43:54;;;;;;;0.83;0.57;;;30.60;33.80;;;;;;5003112;28;20248;-74
2021/09/08 12:46:41;;;;;;;0.00;0.00;;;30.70;34.10;;;;;;5003974;28;20239;-73
2021/09/08 12:49:12;;;;;;;0.30;0.30;;;30.90;33.90;;;;;;5010678;28;20209;-73
2021/09/08 12:51:40;;;;;;;0.00;0.00;;;31.10;34.00;;;;;;5002876;28;20215;-73
2021/09/08 12:54:13;;;;;;;0.20;0.20;;;31.10;33.60;;;;;;5003310;28;20295;-73